Time;durP1;ratioP1;P1;durP2;ratioP2;P2;SDS_P1;SDS_P2;PMS_P1;PMS_P2;Temp;Humidity;BMP_temperature;BMP_pressure;BME280_temperature;BME280_humidity;BME280_pressure;Samples;Min_cycle;Max_cycle;Signal;HPM_P1;HPM_P2
2022/05/23 00:00:14;;;;;;;2.55;0.73;;;17.60;65.60;;;;;;2050196;29;20051;-91
2022/05/23 00:01:33;;;;;;;2.10;0.88;;;17.60;65.70;;;;;;2052948;28;20039;-91
2022/05/23 00:02:52;;;;;;;1.63;0.60;;;17.50;65.60;;;;;;2047422;28;20051;-91
2022/05/23 00:04:12;;;;;;;1.38;0.60;;;17.50;65.60;;;;;;2044835;29;20035;-92
2022/05/23 00:05:31;;;;;;;2.45;0.70;;;17.50;65.60;;;;;;2046687;29;20114;-92
2022/05/23 00:06:51;;;;;;;3.00;0.95;;;17.50;65.70;;;;;;2049496;29;20071;-90
2022/05/23 00:08:10;;;;;;;2.17;0.60;;;17.50;65.70;;;;;;2038471;29;20043;-91
2022/05/23 00:09:30;;;;;;;2.70;0.65;;;17.50;65.70;;;;;;2046140;29;20039;-91
2022/05/23 00:10:49;;;;;;;1.73;0.65;;;17.50;65.70;;;;;;2046811;29;20035;-91
2022/05/23 00:12:09;;;;;;;2.40;0.60;;;17.50;65.70;;;;;;2038343;29;20497;-91
2022/05/23 00:13:29;;;;;;;2.13;0.52;;;17.50;65.80;;;;;;2040645;28;20035;-90
2022/05/23 00:14:49;;;;;;;2.15;0.60;;;17.50;65.80;;;;;;2046488;29;20039;-91
2022/05/23 00:16:09;;;;;;;;;;;17.50;65.80;;;;;;2042411;29;20040;-91
2022/05/23 00:17:28;;;;;;;2.15;0.60;;;17.40;65.80;;;;;;2047508;29;19954;-90
2022/05/23 00:18:48;;;;;;;2.35;0.70;;;17.40;65.80;;;;;;2036867;29;20040;-91
2022/05/23 00:20:11;;;;;;;3.15;0.68;;;17.40;65.90;;;;;;2043706;29;20039;-90
2022/05/23 00:21:31;;;;;;;1.88;0.50;;;17.40;66.00;;;;;;2047122;29;20039;-91
2022/05/23 00:22:50;;;;;;;2.25;0.63;;;17.40;66.00;;;;;;2039399;29;20131;-91
2022/05/23 00:24:12;;;;;;;1.33;0.40;;;17.30;66.10;;;;;;2027989;29;20076;-91
2022/05/23 00:25:32;;;;;;;3.10;0.90;;;17.30;66.20;;;;;;2044309;29;20027;-92
2022/05/23 00:26:52;;;;;;;2.58;0.65;;;17.30;66.20;;;;;;2039860;29;20075;-91
2022/05/23 00:28:12;;;;;;;1.75;0.57;;;17.40;66.30;;;;;;2051852;28;20034;-91
2022/05/23 00:29:31;;;;;;;2.10;0.60;;;17.30;66.30;;;;;;2040072;29;20035;-92
2022/05/23 00:30:50;;;;;;;1.80;0.60;;;17.30;66.30;;;;;;2046950;29;20122;-90
2022/05/23 00:35:26;;;;;;;1.92;0.80;;;17.30;66.40;;;;;;2048514;28;20075;-91
2022/05/23 00:36:45;;;;;;;3.63;0.75;;;17.30;66.50;;;;;;2054823;29;20094;-91
2022/05/23 00:38:05;;;;;;;2.95;0.68;;;17.30;66.50;;;;;;2047622;29;20040;-91
2022/05/23 00:39:24;;;;;;;2.13;0.80;;;17.30;66.60;;;;;;2038623;29;20048;-91
2022/05/23 00:43:13;;;;;;;3.30;0.80;;;17.30;66.60;;;;;;2037135;29;20071;-91
2022/05/23 00:44:11;;;;;;;3.13;0.70;;;17.30;66.80;;;;;;2065999;28;20034;-91
2022/05/23 00:45:30;;;;;;;1.75;0.70;;;17.20;66.70;;;;;;2057773;28;20070;-91
2022/05/23 00:46:59;;;;;;;1.08;0.63;;;17.20;66.80;;;;;;2054526;28;20027;-92
2022/05/23 00:48:25;;;;;;;1.42;0.68;;;17.20;66.90;;;;;;2063636;28;20030;-91
2022/05/23 00:49:44;;;;;;;3.00;0.80;;;17.20;67.60;;;;;;2063983;28;20046;-92
2022/05/23 00:51:10;;;;;;;8.98;0.95;;;17.20;67.00;;;;;;2056805;28;20117;-92
2022/05/23 00:52:39;;;;;;;2.03;0.77;;;17.10;67.00;;;;;;2047195;29;20118;-91
2022/05/23 00:54:04;;;;;;;3.30;0.68;;;17.10;67.10;;;;;;2049563;29;20047;-91
2022/05/23 00:55:36;;;;;;;1.73;0.73;;;17.10;67.10;;;;;;2049618;29;20520;-91
2022/05/23 00:56:56;;;;;;;1.85;0.70;;;17.00;67.10;;;;;;2056307;28;20451;-91
2022/05/23 00:58:22;;;;;;;4.10;0.98;;;17.00;67.20;;;;;;2041455;29;20059;-91
2022/05/23 00:59:42;;;;;;;3.33;0.82;;;17.00;67.40;;;;;;2054494;28;20035;-91
2022/05/23 01:01:06;;;;;;;1.48;0.63;;;17.00;67.40;;;;;;2047280;28;20424;-91
2022/05/23 01:02:25;;;;;;;2.05;0.80;;;16.90;67.40;;;;;;2058045;28;20030;-91
2022/05/23 01:03:44;;;;;;;2.60;0.73;;;16.90;67.50;;;;;;2049239;28;20439;-90
2022/05/23 01:05:08;;;;;;;2.05;0.80;;;16.90;67.60;;;;;;2054771;28;20038;-91
2022/05/23 01:06:27;;;;;;;2.03;0.60;;;16.90;67.60;;;;;;2053794;28;20031;-91
2022/05/23 01:07:46;;;;;;;2.88;0.70;;;16.90;67.60;;;;;;2054680;28;20419;-91
2022/05/23 01:09:06;;;;;;;1.73;0.60;;;16.90;67.70;;;;;;2049375;28;20039;-91
2022/05/23 01:10:26;;;;;;;2.45;0.90;;;16.90;67.80;;;;;;2054355;28;20460;-92
2022/05/23 01:11:45;;;;;;;1.48;0.70;;;16.90;67.80;;;;;;2054740;28;20028;-91
2022/05/23 01:13:05;;;;;;;2.50;0.85;;;16.90;67.80;;;;;;2061221;28;20073;-91
2022/05/23 01:14:25;;;;;;;1.83;0.80;;;16.80;67.80;;;;;;2054303;28;20051;-91
2022/05/23 01:15:49;;;;;;;2.38;0.75;;;16.90;67.90;;;;;;2054371;28;20500;-92
2022/05/23 01:17:08;;;;;;;2.10;0.90;;;16.80;67.90;;;;;;2054651;28;20035;-91
2022/05/23 01:18:28;;;;;;;2.88;0.88;;;16.80;67.90;;;;;;2048569;28;20079;-91
2022/05/23 01:19:47;;;;;;;2.45;0.80;;;16.80;68.00;;;;;;2059349;28;20046;-91
2022/05/23 01:21:14;;;;;;;2.83;0.80;;;16.90;68.00;;;;;;2050818;28;20051;-91
2022/05/23 01:22:58;;;;;;;2.60;0.90;;;16.80;68.00;;;;;;2059299;28;20046;-91
2022/05/23 01:24:35;;;;;;;2.50;0.70;;;16.80;68.00;;;;;;2058546;28;20117;-90
2022/05/23 01:25:55;;;;;;;2.08;0.70;;;16.80;68.10;;;;;;2050974;29;20520;-91
2022/05/23 01:27:14;;;;;;;3.53;1.00;;;16.80;68.10;;;;;;2047839;29;20090;-91
2022/05/23 01:28:37;;;;;;;1.73;0.75;;;16.80;68.20;;;;;;2047824;29;20114;-92
2022/05/23 01:29:57;;;;;;;1.65;0.77;;;16.80;68.20;;;;;;2056089;28;20035;-90
2022/05/23 01:31:16;;;;;;;2.78;0.80;;;16.70;68.30;;;;;;2050810;29;20066;-91
2022/05/23 01:32:38;;;;;;;2.80;0.80;;;16.80;68.40;;;;;;2054576;28;20054;-91
2022/05/23 01:33:57;;;;;;;3.60;0.70;;;16.80;68.40;;;;;;2043157;29;20074;-91
2022/05/23 01:35:17;;;;;;;3.75;0.90;;;16.80;68.50;;;;;;2055905;28;20035;-90
2022/05/23 01:36:36;;;;;;;2.13;0.90;;;16.80;68.60;;;;;;2048868;29;20505;-91
2022/05/23 01:37:56;;;;;;;1.95;0.70;;;16.70;68.60;;;;;;2062652;28;20270;-91
2022/05/23 01:39:15;;;;;;;2.78;0.82;;;16.70;68.70;;;;;;2052348;28;20040;-90
2022/05/23 01:40:35;;;;;;;1.42;0.60;;;16.70;68.70;;;;;;2045973;28;20555;-91
2022/05/23 01:41:54;;;;;;;2.13;0.60;;;16.70;68.80;;;;;;2060734;28;20522;-90
2022/05/23 01:43:14;;;;;;;3.67;0.80;;;16.70;68.90;;;;;;2058435;28;20547;-91
2022/05/23 01:44:34;;;;;;;1.60;0.70;;;16.70;68.90;;;;;;2047823;29;20047;-91
2022/05/23 01:45:53;;;;;;;2.70;1.15;;;16.80;69.00;;;;;;2042997;29;20040;-91
2022/05/23 01:47:17;;;;;;;2.03;0.70;;;16.70;69.00;;;;;;2044931;29;20058;-90
2022/05/23 01:48:36;;;;;;;2.70;0.90;;;16.70;69.10;;;;;;2063862;28;20496;-90
2022/05/23 01:49:55;;;;;;;1.92;0.82;;;16.70;69.20;;;;;;2042397;29;20048;-92
2022/05/23 01:51:15;;;;;;;1.73;0.70;;;16.70;69.20;;;;;;2056274;28;20038;-91
2022/05/23 01:52:34;;;;;;;1.70;0.70;;;16.70;69.30;;;;;;2058531;28;20039;-91
2022/05/23 01:53:53;;;;;;;1.95;0.80;;;16.70;69.30;;;;;;2047833;29;20067;-91
2022/05/23 01:55:13;;;;;;;2.75;0.70;;;16.70;69.40;;;;;;2047575;29;20040;-91
2022/05/23 01:56:32;;;;;;;2.13;0.70;;;16.70;69.40;;;;;;2046982;28;20071;-91
2022/05/23 01:57:51;;;;;;;2.92;0.73;;;16.70;69.50;;;;;;2058630;28;20072;-91
2022/05/23 02:02:27;;;;;;;1.67;0.70;;;16.70;69.60;;;;;;2058256;28;20519;-91
2022/05/23 02:03:48;;;;;;;2.28;0.70;;;16.70;69.70;;;;;;2058858;28;20055;-91
2022/05/23 02:05:08;;;;;;;1.85;0.68;;;16.60;69.70;;;;;;2047518;29;20042;-91
2022/05/23 02:06:27;;;;;;;2.72;0.80;;;16.70;69.80;;;;;;2043147;29;20043;-91
2022/05/23 02:07:46;;;;;;;2.47;0.80;;;16.60;69.80;;;;;;2047185;28;20051;-91
2022/05/23 02:09:05;;;;;;;1.90;0.80;;;16.60;70.00;;;;;;2047695;29;20083;-91
2022/05/23 02:10:25;;;;;;;1.48;0.65;;;16.60;70.00;;;;;;2057184;28;20062;-92
2022/05/23 02:11:45;;;;;;;2.60;0.80;;;16.60;70.10;;;;;;2055229;28;20110;-91
2022/05/23 02:13:04;;;;;;;2.53;0.80;;;16.60;70.20;;;;;;2053111;28;20050;-91
2022/05/23 02:14:24;;;;;;;2.55;0.88;;;16.50;70.20;;;;;;2052970;28;20039;-91
2022/05/23 02:15:43;;;;;;;2.28;0.82;;;16.50;70.30;;;;;;2046489;29;20040;-91
2022/05/23 02:17:02;;;;;;;2.92;0.90;;;16.50;70.30;;;;;;2048180;29;20460;-91
2022/05/23 02:18:21;;;;;;;1.90;0.80;;;16.50;70.40;;;;;;2050749;29;20467;-92
2022/05/23 02:19:41;;;;;;;1.95;0.80;;;16.50;70.50;;;;;;2051284;29;20047;-91
2022/05/23 02:21:01;;;;;;;3.20;0.70;;;16.50;70.50;;;;;;2055557;28;20031;-91
2022/05/23 02:22:20;;;;;;;2.28;0.85;;;16.40;70.60;;;;;;2048197;28;20053;-91
2022/05/23 02:23:40;;;;;;;2.30;0.70;;;16.40;70.60;;;;;;2051809;28;20035;-91
2022/05/23 02:25:01;;;;;;;1.67;0.70;;;16.40;70.70;;;;;;2050970;29;20036;-90
2022/05/23 02:26:21;;;;;;;1.55;0.80;;;16.40;70.70;;;;;;2060901;28;20046;-91
2022/05/23 02:27:40;;;;;;;2.60;0.70;;;16.40;70.70;;;;;;2058862;28;20114;-92
2022/05/23 02:29:00;;;;;;;1.60;0.80;;;16.40;70.80;;;;;;2047508;29;20043;-91
2022/05/23 02:30:20;;;;;;;1.10;0.70;;;16.40;70.90;;;;;;2060159;28;20442;-91
2022/05/23 02:31:39;;;;;;;2.00;0.90;;;16.40;70.90;;;;;;2049377;28;20027;-91
2022/05/23 02:32:58;;;;;;;2.97;0.85;;;16.40;70.90;;;;;;2054232;28;20070;-92
2022/05/23 02:34:19;;;;;;;1.73;0.75;;;16.40;70.90;;;;;;2046410;29;20043;-90
2022/05/23 02:35:38;;;;;;;2.83;0.95;;;16.40;71.00;;;;;;2052214;28;20035;-92
2022/05/23 02:36:57;;;;;;;3.33;0.80;;;16.40;71.00;;;;;;2063450;28;20046;-90
2022/05/23 02:38:16;;;;;;;2.92;0.73;;;16.30;71.00;;;;;;2051516;29;20035;-91
2022/05/23 02:39:35;;;;;;;1.80;0.70;;;16.30;71.00;;;;;;2055987;28;20043;-90
2022/05/23 02:40:54;;;;;;;2.13;0.90;;;16.30;71.10;;;;;;2047662;29;20047;-92
2022/05/23 02:42:14;;;;;;;4.75;1.05;;;16.30;71.10;;;;;;2050239;28;20035;-91
2022/05/23 02:43:33;;;;;;;3.05;0.93;;;16.30;71.20;;;;;;2046729;28;20032;-91
2022/05/23 02:44:52;;;;;;;2.53;0.90;;;16.30;71.20;;;;;;2054808;28;20499;-91
2022/05/23 02:46:12;;;;;;;1.80;0.70;;;16.30;71.20;;;;;;2045022;29;20040;-92
2022/05/23 02:47:32;;;;;;;2.55;0.93;;;16.30;71.30;;;;;;2048964;28;20524;-92
2022/05/23 02:48:52;;;;;;;3.40;1.00;;;16.30;71.30;;;;;;2049172;28;20035;-91
2022/05/23 02:50:12;;;;;;;1.92;0.80;;;16.30;71.30;;;;;;2047482;29;20424;-92
2022/05/23 02:51:33;;;;;;;2.45;0.73;;;16.20;71.40;;;;;;2051483;28;20066;-92
2022/05/23 02:52:52;;;;;;;2.25;0.98;;;16.20;71.50;;;;;;2054164;28;20031;-92
2022/05/23 02:54:12;;;;;;;2.05;0.80;;;16.20;71.50;;;;;;2042778;28;20154;-92
2022/05/23 02:55:32;;;;;;;3.13;0.90;;;16.20;71.60;;;;;;2055817;28;20503;-91
2022/05/23 02:56:52;;;;;;;2.38;0.90;;;16.20;71.60;;;;;;2050262;29;20764;-92
2022/05/23 02:58:11;;;;;;;1.83;0.73;;;16.20;71.70;;;;;;2047204;29;20114;-91
2022/05/23 02:59:30;;;;;;;1.35;0.60;;;16.20;71.80;;;;;;2044005;29;20060;-91
2022/05/23 03:00:49;;;;;;;0.95;0.70;;;16.20;71.80;;;;;;2058238;28;20039;-91
2022/05/23 03:03:47;;;;;;;1.88;0.90;;;16.10;71.90;;;;;;2062331;28;20046;-90
2022/05/23 03:05:07;;;;;;;1.95;0.77;;;16.10;71.90;;;;;;2042106;29;20036;-92
2022/05/23 03:06:26;;;;;;;4.93;0.82;;;16.10;71.90;;;;;;2052881;28;20042;-91
2022/05/23 03:07:45;;;;;;;3.08;0.90;;;16.10;71.90;;;;;;2047002;29;20071;-90
2022/05/23 03:09:04;;;;;;;2.83;0.75;;;16.10;72.00;;;;;;2052301;28;20462;-91
2022/05/23 03:10:24;;;;;;;4.40;0.90;;;16.10;72.10;;;;;;2049694;29;20055;-91
2022/05/23 03:11:43;;;;;;;2.25;1.02;;;16.10;72.20;;;;;;2055088;28;20531;-91
2022/05/23 03:13:03;;;;;;;2.45;0.90;;;16.10;72.20;;;;;;2045496;29;20043;-91
2022/05/23 03:14:22;;;;;;;3.70;1.05;;;16.10;72.20;;;;;;2051423;28;20035;-92
2022/05/23 03:15:42;;;;;;;3.05;0.93;;;16.00;72.20;;;;;;2053682;28;20035;-91
2022/05/23 03:17:03;;;;;;;1.58;0.80;;;16.10;72.30;;;;;;2045749;29;20040;-91
2022/05/23 03:18:24;;;;;;;2.78;1.00;;;16.00;72.30;;;;;;2052195;28;20113;-91
2022/05/23 03:19:43;;;;;;;;;;;16.00;72.40;;;;;;2050565;29;20051;-91
2022/05/23 03:21:07;;;;;;;1.17;0.65;;;16.00;72.30;;;;;;2049767;29;19906;-92
2022/05/23 03:27:21;;;;;;;1.20;0.68;;;16.00;72.50;;;;;;2072449;28;20066;-91
2022/05/23 03:28:41;;;;;;;3.05;1.10;;;16.00;72.60;;;;;;2062431;28;20058;-90
2022/05/23 03:30:00;;;;;;;2.58;1.00;;;15.90;72.60;;;;;;2059715;28;20043;-91
2022/05/23 03:31:20;;;;;;;3.47;1.00;;;15.90;72.70;;;;;;2060004;28;20034;-91
2022/05/23 03:32:39;;;;;;;1.95;0.98;;;15.90;72.70;;;;;;2054411;28;20031;-92
2022/05/23 03:33:59;;;;;;;2.47;0.93;;;15.90;72.80;;;;;;2058252;28;20043;-92
2022/05/23 03:35:19;;;;;;;2.72;1.10;;;15.90;72.90;;;;;;2058353;28;20117;-91
2022/05/23 03:36:38;;;;;;;3.08;1.05;;;15.90;73.00;;;;;;2054220;28;20042;-92
2022/05/23 03:37:58;;;;;;;2.88;1.08;;;15.90;73.00;;;;;;2049102;28;20038;-92
2022/05/23 03:39:18;;;;;;;4.13;1.20;;;15.90;73.10;;;;;;2060079;28;20443;-91
2022/05/23 03:40:39;;;;;;;3.45;1.30;;;15.90;73.20;;;;;;2057797;28;20042;-92
2022/05/23 03:41:58;;;;;;;;;;;15.80;73.20;;;;;;2063985;28;20054;-91
2022/05/23 03:43:18;;;;;;;2.80;1.00;;;15.80;73.20;;;;;;2048818;28;19911;-92
2022/05/23 03:44:37;;;;;;;3.78;1.10;;;15.80;73.20;;;;;;2058572;28;20034;-92
2022/05/23 03:46:03;;;;;;;2.78;1.00;;;15.80;73.20;;;;;;2050092;29;20075;-90
2022/05/23 03:47:23;;;;;;;3.08;1.13;;;15.80;73.30;;;;;;2059225;28;20038;-91
2022/05/23 03:48:42;;;;;;;3.72;1.30;;;15.80;73.40;;;;;;2054802;28;20102;-90
2022/05/23 03:50:02;;;;;;;3.40;1.20;;;15.80;73.50;;;;;;2059803;28;20034;-91
2022/05/23 03:51:21;;;;;;;1.67;1.10;;;15.80;73.50;;;;;;2071366;28;20037;-91
2022/05/23 03:52:40;;;;;;;2.70;1.23;;;15.80;73.60;;;;;;2061411;28;20515;-91
2022/05/23 03:54:00;;;;;;;3.05;1.15;;;15.80;73.60;;;;;;2057882;28;20035;-91
2022/05/23 03:55:20;;;;;;;2.15;1.00;;;15.80;73.70;;;;;;2053586;28;20054;-90
2022/05/23 03:56:39;;;;;;;2.95;1.10;;;15.80;73.70;;;;;;2053116;28;20027;-91
2022/05/23 03:57:58;;;;;;;2.47;1.10;;;15.80;73.70;;;;;;2061222;28;20548;-91
2022/05/23 03:59:17;;;;;;;4.53;1.10;;;15.80;73.80;;;;;;2042356;29;20474;-91
2022/05/23 04:00:37;;;;;;;3.40;1.10;;;15.80;73.80;;;;;;2060610;28;20522;-91
2022/05/23 04:01:57;;;;;;;3.92;1.40;;;15.90;73.90;;;;;;2067009;28;20415;-91
2022/05/23 04:03:20;;;;;;;4.65;1.35;;;15.80;73.90;;;;;;2057283;28;20034;-91
2022/05/23 04:04:39;;;;;;;2.10;1.10;;;15.80;73.90;;;;;;2054940;28;20122;-91
2022/05/23 04:06:00;;;;;;;3.95;1.20;;;15.80;73.90;;;;;;2049299;28;20035;-92
2022/05/23 04:07:19;;;;;;;2.08;1.10;;;15.80;74.00;;;;;;2054882;28;20510;-91
2022/05/23 04:08:38;;;;;;;2.28;1.10;;;15.90;74.00;;;;;;2049844;28;20055;-91
2022/05/23 04:09:58;;;;;;;2.45;1.00;;;15.90;74.10;;;;;;2050236;29;20055;-91
2022/05/23 04:11:17;;;;;;;3.05;1.55;;;15.90;74.10;;;;;;2051121;28;20043;-91
2022/05/23 04:12:37;;;;;;;1.88;1.00;;;15.90;74.10;;;;;;2046153;29;20035;-91
2022/05/23 04:13:56;;;;;;;2.90;1.23;;;15.90;74.10;;;;;;2047470;29;20043;-91
2022/05/23 04:15:15;;;;;;;2.63;1.10;;;15.90;74.10;;;;;;2054210;28;20460;-91
2022/05/23 04:16:35;;;;;;;3.70;1.20;;;15.90;74.20;;;;;;2055316;28;20426;-92
2022/05/23 04:17:54;;;;;;;3.08;1.35;;;15.90;74.20;;;;;;2049640;28;20043;-91
2022/05/23 04:19:13;;;;;;;2.83;1.25;;;15.90;74.20;;;;;;2062449;28;20406;-92
2022/05/23 04:20:33;;;;;;;2.85;1.00;;;15.90;74.30;;;;;;2058883;28;20046;-91
2022/05/23 04:21:52;;;;;;;2.95;1.20;;;15.90;74.30;;;;;;2064156;28;20046;-92
2022/05/23 04:23:12;;;;;;;2.65;1.30;;;15.90;74.30;;;;;;2049935;29;20118;-91
2022/05/23 04:24:31;;;;;;;2.75;1.40;;;15.90;74.40;;;;;;2059507;28;20142;-91
2022/05/23 04:25:50;;;;;;;2.65;1.27;;;15.90;74.40;;;;;;2058704;28;20047;-92
2022/05/23 04:27:10;;;;;;;2.28;1.10;;;15.90;74.50;;;;;;2054253;28;20043;-91
2022/05/23 04:28:30;;;;;;;2.05;1.20;;;15.90;74.50;;;;;;2054842;28;20402;-91
2022/05/23 04:29:49;;;;;;;4.07;1.30;;;15.90;74.50;;;;;;2066240;28;20034;-91
2022/05/23 04:31:10;;;;;;;3.00;1.30;;;15.90;74.60;;;;;;2053631;28;20270;-91
2022/05/23 04:35:45;;;;;;;2.90;1.35;;;15.90;74.60;;;;;;2058278;28;20039;-91
2022/05/23 04:37:04;;;;;;;3.38;1.30;;;16.00;74.70;;;;;;2056773;28;20507;-91
2022/05/23 04:38:24;;;;;;;2.20;1.20;;;16.00;74.70;;;;;;2051239;28;20130;-91
2022/05/23 04:39:44;;;;;;;3.63;1.58;;;16.00;74.70;;;;;;2046469;29;20039;-91
2022/05/23 04:41:06;;;;;;;3.28;1.40;;;16.00;74.70;;;;;;2038703;29;20112;-90
2022/05/23 04:42:25;;;;;;;2.85;1.30;;;16.00;74.80;;;;;;2036844;28;20100;-91
2022/05/23 04:43:45;;;;;;;3.50;1.20;;;16.00;74.80;;;;;;2048320;28;20110;-91
2022/05/23 04:45:04;;;;;;;4.20;1.25;;;16.00;74.90;;;;;;2046796;29;20043;-90
2022/05/23 04:46:24;;;;;;;2.65;1.30;;;16.00;74.90;;;;;;2044133;28;20042;-90
2022/05/23 04:51:00;;;;;;;3.33;1.40;;;16.10;74.90;;;;;;2065558;28;20466;-91
2022/05/23 04:52:20;;;;;;;3.40;1.40;;;16.00;74.80;;;;;;2066192;28;20039;-91
2022/05/23 04:53:39;;;;;;;3.22;1.63;;;16.10;74.90;;;;;;2049495;28;20039;-91
2022/05/23 04:54:58;;;;;;;4.63;1.42;;;16.10;74.90;;;;;;2050857;29;20059;-91
2022/05/23 04:56:17;;;;;;;3.60;1.40;;;16.10;74.90;;;;;;2056484;28;20035;-90
2022/05/23 04:57:36;;;;;;;3.20;1.52;;;16.20;75.00;;;;;;2052517;28;20500;-90
2022/05/23 04:58:56;;;;;;;3.78;1.65;;;16.20;75.00;;;;;;2050918;28;20411;-91
2022/05/23 05:00:19;;;;;;;4.55;1.70;;;16.20;74.90;;;;;;2056858;28;20046;-91
2022/05/23 05:01:38;;;;;;;3.30;1.50;;;16.20;74.90;;;;;;2058624;28;20039;-91
2022/05/23 05:03:01;;;;;;;3.45;1.65;;;16.20;74.90;;;;;;2056542;28;20114;-91
2022/05/23 05:04:20;;;;;;;2.53;1.30;;;16.30;74.90;;;;;;2051882;29;20122;-91
2022/05/23 05:05:40;;;;;;;3.13;1.27;;;16.30;74.90;;;;;;2058450;28;20042;-91
2022/05/23 05:06:59;;;;;;;3.55;1.63;;;16.30;74.90;;;;;;2044354;28;20040;-91
2022/05/23 05:08:18;;;;;;;3.45;1.40;;;16.30;74.90;;;;;;2061951;28;20053;-90
2022/05/23 05:09:38;;;;;;;2.38;1.42;;;16.30;74.90;;;;;;2052076;28;20047;-91
2022/05/23 05:10:57;;;;;;;2.80;1.33;;;16.40;74.90;;;;;;2049248;29;20036;-91
2022/05/23 05:12:16;;;;;;;3.65;1.50;;;16.40;74.90;;;;;;2056362;28;20038;-90
2022/05/23 05:13:36;;;;;;;2.72;1.45;;;16.50;75.50;;;;;;2050286;28;20040;-90
2022/05/23 05:14:56;;;;;;;3.53;1.40;;;16.50;74.80;;;;;;2059099;28;20481;-91
2022/05/23 05:16:19;;;;;;;3.03;1.50;;;16.60;74.80;;;;;;2052254;29;20054;-91
2022/05/23 05:17:38;;;;;;;3.30;1.42;;;16.60;74.70;;;;;;2057595;28;20038;-91
2022/05/23 05:18:58;;;;;;;5.43;1.48;;;16.60;74.70;;;;;;2043904;29;20039;-90
2022/05/23 05:20:19;;;;;;;2.60;1.40;;;16.60;74.70;;;;;;2056105;28;20038;-91
2022/05/23 05:21:37;;;;;;;;;;;16.70;74.70;;;;;;2059393;28;20046;-92
2022/05/23 05:22:57;;;;;;;4.82;1.50;;;16.70;74.70;;;;;;2053460;28;19914;-90
2022/05/23 05:24:17;;;;;;;3.17;1.60;;;16.70;74.60;;;;;;2056021;28;20054;-91
2022/05/23 05:25:41;;;;;;;3.33;1.80;;;16.70;74.60;;;;;;2059097;28;20039;-91
2022/05/23 05:27:01;;;;;;;2.58;1.60;;;16.70;74.60;;;;;;2051125;29;20039;-91
2022/05/23 05:28:21;;;;;;;3.10;1.50;;;16.70;74.70;;;;;;2051125;28;20034;-91
2022/05/23 05:29:40;;;;;;;4.07;1.60;;;16.70;74.70;;;;;;2063595;28;20069;-92
2022/05/23 05:31:11;;;;;;;4.07;1.50;;;16.80;74.70;;;;;;2045289;29;20072;-91
2022/05/23 05:32:42;;;;;;;3.30;1.55;;;16.80;74.70;;;;;;2060190;28;20414;-91
2022/05/23 05:34:10;;;;;;;2.97;1.52;;;16.90;74.70;;;;;;2065369;28;20038;-92
2022/05/23 05:35:56;;;;;;;3.00;1.65;;;16.90;74.60;;;;;;2067024;28;20042;-91
2022/05/23 05:37:32;;;;;;;3.90;1.70;;;17.00;74.60;;;;;;2066582;28;20038;-91
2022/05/23 05:38:59;;;;;;;4.05;1.75;;;17.00;74.60;;;;;;2055637;28;20039;-92
2022/05/23 05:40:24;;;;;;;4.07;1.73;;;17.00;74.50;;;;;;2052785;28;20047;-91
2022/05/23 05:42:00;;;;;;;4.00;1.67;;;17.00;74.60;;;;;;2045792;28;20051;-91
2022/05/23 05:43:26;;;;;;;3.75;1.77;;;17.10;74.60;;;;;;2049197;28;20043;-91
2022/05/23 05:44:51;;;;;;;3.33;1.73;;;17.10;74.50;;;;;;2051327;28;20051;-91
2022/05/23 05:46:21;;;;;;;3.60;1.80;;;17.10;74.40;;;;;;2050273;29;20039;-90
2022/05/23 05:47:44;;;;;;;3.33;1.70;;;17.20;74.40;;;;;;2058166;28;20042;-91
2022/05/23 05:49:11;;;;;;;3.35;1.60;;;17.20;74.30;;;;;;2067261;28;20606;-91
2022/05/23 05:50:34;;;;;;;4.80;1.70;;;17.30;74.30;;;;;;2054867;28;20035;-90
2022/05/23 05:52:01;;;;;;;3.97;1.73;;;17.30;74.20;;;;;;2052697;28;20114;-91
2022/05/23 05:53:25;;;;;;;3.88;1.80;;;17.30;74.10;;;;;;2053904;28;20500;-92
2022/05/23 05:54:45;;;;;;;4.78;2.10;;;17.40;74.10;;;;;;2054015;28;20046;-91
2022/05/23 05:56:06;;;;;;;3.45;1.80;;;17.40;74.10;;;;;;2047739;29;20040;-91
2022/05/23 05:57:25;;;;;;;4.72;1.63;;;17.40;74.10;;;;;;2047945;29;20415;-91
2022/05/23 05:58:45;;;;;;;3.10;1.63;;;17.50;74.10;;;;;;2060545;28;20581;-91
2022/05/23 06:00:06;;;;;;;3.60;1.85;;;17.50;74.10;;;;;;2058712;28;20042;-91
2022/05/23 06:01:25;;;;;;;;;;;17.60;74.00;;;;;;2048424;29;20039;-91
2022/05/23 06:02:45;;;;;;;2.72;1.33;;;17.60;73.90;;;;;;2055576;28;19906;-91
2022/05/23 06:04:04;;;;;;;5.07;2.00;;;17.70;73.80;;;;;;2065523;28;20078;-91
2022/05/23 06:05:23;;;;;;;4.47;1.90;;;17.70;73.70;;;;;;2059240;28;20043;-91
2022/05/23 06:11:38;;;;;;;3.47;1.73;;;17.80;73.80;;;;;;2070385;28;20039;-92
2022/05/23 06:12:57;;;;;;;4.13;1.92;;;17.80;73.80;;;;;;2067558;28;20038;-91
2022/05/23 06:14:16;;;;;;;4.05;2.00;;;17.80;73.80;;;;;;2046804;28;20134;-91
2022/05/23 06:15:36;;;;;;;3.78;1.90;;;17.80;73.80;;;;;;2052069;28;20047;-91
2022/05/23 06:16:55;;;;;;;4.65;2.10;;;17.90;73.90;;;;;;2049488;28;20043;-91
2022/05/23 06:18:14;;;;;;;4.28;2.03;;;17.80;73.90;;;;;;2040498;29;20083;-91
2022/05/23 06:19:45;;;;;;;3.85;1.90;;;17.90;74.00;;;;;;2054681;28;20027;-91
2022/05/23 06:21:09;;;;;;;5.07;2.00;;;17.90;74.00;;;;;;2058987;28;20051;-91
2022/05/23 06:22:28;;;;;;;3.67;1.70;;;17.80;74.00;;;;;;2048359;29;20031;-91
2022/05/23 06:23:48;;;;;;;4.65;2.20;;;17.90;74.10;;;;;;2055638;28;20030;-91
2022/05/23 06:25:09;;;;;;;3.90;1.90;;;17.90;74.10;;;;;;2067891;28;20109;-91
2022/05/23 06:26:28;;;;;;;3.45;1.90;;;17.90;74.10;;;;;;2049349;28;20048;-91
2022/05/23 06:27:47;;;;;;;3.67;1.83;;;17.90;74.10;;;;;;2054435;28;20050;-91
2022/05/23 06:29:07;;;;;;;5.57;2.25;;;17.90;74.20;;;;;;2043213;29;20452;-91
2022/05/23 06:30:27;;;;;;;4.82;2.30;;;18.00;74.20;;;;;;2052369;28;20031;-91
2022/05/23 06:31:47;;;;;;;3.88;1.95;;;18.00;74.20;;;;;;2060997;28;20130;-91
2022/05/23 06:33:06;;;;;;;2.72;1.90;;;18.00;74.20;;;;;;2052995;28;20039;-92
2022/05/23 06:34:26;;;;;;;4.47;2.13;;;18.00;74.20;;;;;;2057870;28;20092;-91
2022/05/23 06:35:45;;;;;;;4.22;1.83;;;18.00;74.20;;;;;;2067033;28;20042;-91
2022/05/23 06:37:04;;;;;;;4.53;1.88;;;18.10;74.20;;;;;;2051829;28;20043;-90
2022/05/23 06:38:24;;;;;;;3.40;1.88;;;18.10;74.20;;;;;;2046151;28;20070;-91
2022/05/23 06:39:43;;;;;;;4.57;1.92;;;18.20;74.80;;;;;;2042792;28;20039;-91
2022/05/23 06:41:05;;;;;;;3.45;1.85;;;18.20;74.10;;;;;;2057513;28;20047;-91
2022/05/23 06:42:24;;;;;;;4.38;1.90;;;18.20;74.10;;;;;;2059135;28;20034;-91
2022/05/23 06:43:44;;;;;;;3.72;2.20;;;18.20;74.00;;;;;;2054200;28;20039;-91
2022/05/23 06:45:06;;;;;;;4.32;1.98;;;18.20;74.00;;;;;;2062391;28;20494;-92
2022/05/23 06:46:27;;;;;;;5.00;1.98;;;18.30;74.00;;;;;;2064140;28;20077;-92
2022/05/23 06:47:46;;;;;;;4.25;1.88;;;18.30;74.00;;;;;;2067070;28;20046;-91
2022/05/23 06:49:06;;;;;;;4.68;2.15;;;18.30;73.90;;;;;;2053370;28;20035;-91
2022/05/23 06:50:25;;;;;;;4.13;2.00;;;18.30;73.90;;;;;;2055549;28;20042;-91
2022/05/23 06:51:49;;;;;;;4.22;1.88;;;18.40;73.80;;;;;;2057375;28;20039;-90
2022/05/23 06:53:08;;;;;;;4.07;1.80;;;18.50;73.80;;;;;;2049950;28;20512;-90
2022/05/23 06:54:27;;;;;;;4.47;1.85;;;18.50;73.70;;;;;;2055218;28;20047;-90
2022/05/23 06:55:47;;;;;;;4.82;2.13;;;18.50;73.60;;;;;;2042995;29;20037;-91
2022/05/23 06:57:06;;;;;;;4.20;2.03;;;18.50;73.50;;;;;;2051668;28;20031;-90
2022/05/23 06:58:26;;;;;;;4.07;1.92;;;18.60;73.60;;;;;;2058448;28;20030;-91
2022/05/23 06:59:46;;;;;;;3.92;1.98;;;18.60;73.60;;;;;;2048363;28;20126;-91
2022/05/23 07:01:05;;;;;;;4.72;1.90;;;18.60;73.50;;;;;;2042430;29;20048;-90
2022/05/23 07:02:25;;;;;;;4.15;2.00;;;18.70;73.60;;;;;;2058505;28;20034;-91
2022/05/23 07:03:44;;;;;;;5.10;2.22;;;18.70;73.70;;;;;;2055937;28;20062;-92
2022/05/23 07:13:15;;;;;;;5.78;2.35;;;19.10;72.70;;;;;;2062045;28;20030;-91
2022/05/23 07:14:34;;;;;;;4.22;2.42;;;19.10;72.60;;;;;;2050368;29;20532;-92
2022/05/23 07:15:57;;;;;;;5.72;2.25;;;19.20;72.50;;;;;;2046603;29;20043;-90
2022/05/23 07:17:16;;;;;;;3.33;2.00;;;19.30;72.50;;;;;;2056274;28;20035;-91
2022/05/23 07:18:38;;;;;;;4.40;1.95;;;19.30;72.30;;;;;;2051112;28;20027;-91
2022/05/23 07:19:57;;;;;;;;;;;19.40;72.20;;;;;;2056579;28;20050;-91
2022/05/23 07:21:18;;;;;;;3.05;1.42;;;19.50;72.10;;;;;;2041101;29;20789;-92
2022/05/23 07:22:37;;;;;;;;;;;19.50;71.90;;;;;;2051576;28;20039;-90
2022/05/23 07:23:58;;;;;;;2.70;1.40;;;19.60;71.80;;;;;;2068832;28;19948;-90
2022/05/23 07:25:17;;;;;;;;;;;19.70;71.70;;;;;;2063247;28;20027;-93
2022/05/23 07:26:37;;;;;;;3.78;1.65;;;19.70;71.50;;;;;;2055744;28;19914;-92
2022/05/23 07:27:56;;;;;;;4.00;1.67;;;19.80;71.40;;;;;;2051423;29;20051;-92
2022/05/23 07:29:15;;;;;;;3.55;1.67;;;19.80;71.30;;;;;;2048515;28;20035;-92
2022/05/23 07:30:35;;;;;;;5.07;1.90;;;19.90;71.30;;;;;;2052675;29;20055;-92
2022/05/23 07:31:54;;;;;;;4.07;2.00;;;20.00;71.20;;;;;;2062337;28;20043;-91
2022/05/23 07:33:15;;;;;;;3.78;1.67;;;20.00;71.10;;;;;;2067211;28;20031;-91
2022/05/23 07:34:34;;;;;;;4.20;1.70;;;20.10;71.00;;;;;;2066107;28;20073;-91